Date,TemperatureHighF,TemperatureAvgF,TemperatureLowF,DewpointHighF,DewpointAvgF,DewpointLowF,HumidityHigh,HumidityAvg,HumidityLow,PressureMaxIn,PressureMinIn,WindSpeedMaxMPH,WindSpeedAvgMPH,GustSpeedMaxMPH,PrecipitationSumIn
2013-3-1,72,69,65,-100,-100,-100,0,0,100,0.00,40.00,0,-999,0,0.00
2013-3-2,70,66,64,-100,-100,-100,0,0,100,0.00,40.00,0,-999,0,0.00
2013-3-3,64,63,62,-100,-100,-100,0,0,100,0.00,40.00,0,-999,0,0.00
2013-3-4,72,68,62,-100,-100,-100,0,0,100,0.00,40.00,0,-999,0,0.00
2013-3-5,72,68,64,-100,-100,-100,0,0,100,0.00,40.00,0,-999,0,0.00
2013-3-6,72,68,64,-100,-100,-100,0,0,100,0.00,40.00,0,-999,0,0.00
2013-3-7,71,68,63,-100,-100,-100,0,0,100,0.00,40.00,0,-999,0,0.00
2013-3-8,70,67,62,-100,-100,-100,0,0,100,0.00,40.00,0,-999,0,0.00
2013-3-9,64,62,61,-100,-100,-100,0,0,100,0.00,40.00,0,-999,0,0.00
2013-3-10,62,61,61,-100,-100,-100,0,0,100,0.00,40.00,0,-999,0,0.00
2013-3-11,71,67,61,-100,-100,-100,0,0,100,0.00,40.00,0,-999,0,0.00
2013-3-12,72,69,64,-100,-100,-100,0,0,100,0.00,40.00,0,-999,0,0.00
2013-3-13,72,69,66,-100,-100,-100,0,0,100,0.00,40.00,0,-999,0,0.00
2013-3-14,84,69,64,-100,-100,-100,0,0,100,0.00,40.00,0,-999,0,0.00
2013-3-15,84,68,63,-100,-100,-100,0,0,100,0.00,40.00,0,-999,0,0.00
2013-3-16,66,63,62,-100,-100,-100,0,0,100,0.00,40.00,0,-999,0,0.00
2013-3-17,62,62,61,-100,-100,-100,0,0,100,0.00,40.00,0,-999,0,0.00
2013-3-18,73,68,61,-100,-100,-100,0,0,100,0.00,40.00,0,-999,0,0.00
2013-3-19,72,68,63,-100,-100,-100,0,0,100,0.00,40.00,0,-999,0,0.00
2013-3-20,71,68,63,-100,-100,-100,0,0,100,0.00,40.00,0,-999,0,0.00
2013-3-21,70,67,62,-100,-100,-100,0,0,100,0.00,40.00,0,-999,0,0.00
2013-3-22,70,67,63,-100,-100,-100,0,0,100,0.00,40.00,0,-999,0,0.00
2013-3-23,64,62,62,-100,-100,-100,0,0,100,0.00,40.00,0,-999,0,0.00
2013-3-24,62,61,60,-100,-100,-100,0,0,100,0.00,40.00,0,-999,0,0.00
2013-3-25,70,66,60,-100,-100,-100,0,0,100,0.00,40.00,0,-999,0,0.00
2013-3-26,71,68,63,-100,-100,-100,0,0,100,0.00,40.00,0,-999,0,0.00
2013-3-27,71,68,63,-100,-100,-100,0,0,100,0.00,40.00,0,-999,0,0.00
2013-3-28,71,68,65,-100,-100,-100,0,0,100,0.00,40.00,0,-999,0,0.00
2013-3-29,71,69,64,-100,-100,-100,0,0,100,0.00,40.00,0,-999,0,0.00
2013-3-30,67,65,64,-100,-100,-100,0,0,100,0.00,40.00,0,-999,0,0.00
2013-3-31,64,63,62,-100,-100,-100,0,0,100,0.00,40.00,0,-999,0,0.00